Time;durP1;ratioP1;P1;durP2;ratioP2;P2;SDS_P1;SDS_P2;PMS_P1;PMS_P2;Temp;Humidity;BMP_temperature;BMP_pressure;BME280_temperature;BME280_humidity;BME280_pressure;Samples;Min_cycle;Max_cycle;Signal;HPM_P1;HPM_P2
2022/07/03 00:01:47;;;;;;;35.38;5.97;;;;;;;;;;4935394;29;20042;-62
2022/07/03 00:04:14;;;;;;;34.80;5.75;;;;;;;;;;4948321;29;20040;-63
2022/07/03 00:06:41;;;;;;;44.60;6.35;;;;;;;;;;4945440;29;20031;-64
2022/07/03 00:09:08;;;;;;;43.53;6.20;;;;;;;;;;4947536;29;20042;-65
2022/07/03 00:11:35;;;;;;;43.53;6.95;;;;;;;;;;4949673;29;20035;-62
2022/07/03 00:14:02;;;;;;;39.03;7.13;;;;;;;;;;4925881;29;20078;-63
2022/07/03 00:16:30;;;;;;;37.03;7.05;;;;;;;;;;4926997;29;20062;-63
2022/07/03 00:18:58;;;;;;;45.88;8.05;;;;;;;;;;4934549;29;20019;-64
2022/07/03 00:21:34;;;;;;;42.88;7.53;;;;;;;;;;4943916;29;20027;-63
2022/07/03 00:24:04;;;;;;;39.85;7.53;;;;;;;;;;4927909;29;20043;-64
2022/07/03 00:26:34;;;;;;;46.22;7.78;;;;;;;;;;4951615;29;20034;-61
2022/07/03 00:29:01;;;;;;;33.55;6.80;;;;;;;;;;4936993;29;20393;-62
2022/07/03 00:31:33;;;;;;;31.23;6.82;;;;;;;;;;4946381;29;20019;-63
2022/07/03 00:34:01;;;;;;;37.92;6.25;;;;;;;;;;4947564;29;20386;-64
2022/07/03 00:36:35;;;;;;;37.65;5.90;;;;;;;;;;4941879;29;20150;-62
2022/07/03 00:39:02;;;;;;;32.28;6.75;;;;;;;;;;4949826;29;20037;-61
2022/07/03 00:41:30;;;;;;;40.70;6.78;;;;;;;;;;4946224;28;20382;-62
2022/07/03 00:43:58;;;;;;;31.80;5.53;;;;;;;;;;4940523;29;20130;-65
2022/07/03 00:46:26;;;;;;;23.60;5.47;;;;;;;;;;4923344;29;20035;-64
2022/07/03 00:48:54;;;;;;;28.80;5.30;;;;;;;;;;4939243;29;20380;-62
2022/07/03 00:51:25;;;;;;;23.25;5.13;;;;;;;;;;4936351;29;20030;-62
2022/07/03 00:53:53;;;;;;;29.80;5.07;;;;;;;;;;4933505;29;20520;-65
2022/07/03 00:56:23;;;;;;;28.77;5.30;;;;;;;;;;4937406;29;20486;-61
2022/07/03 00:58:53;;;;;;;25.10;5.35;;;;;;;;;;4937696;29;20027;-62
2022/07/03 01:01:20;;;;;;;27.08;5.53;;;;;;;;;;4937514;29;20039;-64
2022/07/03 01:03:49;;;;;;;25.65;5.63;;;;;;;;;;4937686;29;20027;-61
2022/07/03 01:06:16;;;;;;;32.72;5.35;;;;;;;;;;4945739;29;20058;-61
2022/07/03 01:08:53;;;;;;;25.73;4.80;;;;;;;;;;4948344;29;20027;-63
2022/07/03 01:11:33;;;;;;;28.63;5.18;;;;;;;;;;4946668;29;20027;-61
2022/07/03 01:14:18;;;;;;;25.25;4.93;;;;;;;;;;4947246;29;20019;-62
2022/07/03 01:16:48;;;;;;;30.65;6.00;;;;;;;;;;4945959;29;20039;-65
2022/07/03 01:19:27;;;;;;;29.92;4.90;;;;;;;;;;4946554;29;20461;-63
2022/07/03 01:21:54;;;;;;;26.75;5.15;;;;;;;;;;4943067;29;20144;-62
2022/07/03 01:24:24;;;;;;;25.83;4.70;;;;;;;;;;4952763;29;20042;-62
2022/07/03 01:26:54;;;;;;;24.15;4.78;;;;;;;;;;4951240;29;20062;-65
2022/07/03 01:29:27;;;;;;;19.92;4.78;;;;;;;;;;4943185;29;20393;-65
2022/07/03 01:31:55;;;;;;;21.73;4.43;;;;;;;;;;4951195;29;20111;-62
2022/07/03 01:34:23;;;;;;;21.50;4.70;;;;;;;;;;4944963;29;20446;-65
2022/07/03 01:36:51;;;;;;;16.65;4.22;;;;;;;;;;4946966;29;20046;-62
2022/07/03 01:39:18;;;;;;;27.15;4.72;;;;;;;;;;4945573;29;20067;-62
2022/07/03 01:41:45;;;;;;;18.80;4.20;;;;;;;;;;4944875;29;20031;-64
2022/07/03 01:44:14;;;;;;;21.58;4.47;;;;;;;;;;4942574;29;20020;-63
2022/07/03 01:46:45;;;;;;;19.98;4.20;;;;;;;;;;4946505;29;20405;-66
2022/07/03 01:49:14;;;;;;;20.42;3.90;;;;;;;;;;4945798;29;20048;-62
2022/07/03 01:51:42;;;;;;;17.60;4.45;;;;;;;;;;4946879;29;20589;-63
2022/07/03 01:54:11;;;;;;;18.50;4.40;;;;;;;;;;4943908;29;20054;-65
2022/07/03 01:56:38;;;;;;;22.17;3.90;;;;;;;;;;4946364;29;20036;-63
2022/07/03 01:59:05;;;;;;;17.70;4.03;;;;;;;;;;4926254;29;20031;-64
2022/07/03 02:01:33;;;;;;;24.75;4.45;;;;;;;;;;4946712;29;20079;-65
2022/07/03 02:04:11;;;;;;;17.90;3.38;;;;;;;;;;4944435;29;20039;-63
2022/07/03 02:06:41;;;;;;;15.82;3.47;;;;;;;;;;4948697;29;20050;-63
2022/07/03 02:09:10;;;;;;;16.33;3.85;;;;;;;;;;4946572;29;20038;-66
2022/07/03 02:11:41;;;;;;;20.98;4.43;;;;;;;;;;4946574;29;20098;-67
2022/07/03 02:14:16;;;;;;;24.97;4.33;;;;;;;;;;4947261;29;20485;-66
2022/07/03 02:16:55;;;;;;;17.73;4.13;;;;;;;;;;4944437;29;20046;-65
2022/07/03 02:19:27;;;;;;;24.88;4.50;;;;;;;;;;4943027;29;20027;-65
2022/07/03 02:21:57;;;;;;;31.45;5.28;;;;;;;;;;4943813;29;20059;-65
2022/07/03 02:24:26;;;;;;;18.83;4.30;;;;;;;;;;4940196;29;20035;-65
2022/07/03 02:27:19;;;;;;;29.45;5.38;;;;;;;;;;4949426;29;20035;-65
2022/07/03 02:30:00;;;;;;;40.45;5.38;;;;;;;;;;4948246;29;20138;-65
2022/07/03 02:32:30;;;;;;;19.02;4.57;;;;;;;;;;4944067;29;20062;-65
2022/07/03 02:35:02;;;;;;;23.73;5.00;;;;;;;;;;4949366;29;20552;-65
2022/07/03 02:37:33;;;;;;;22.67;5.00;;;;;;;;;;4947513;29;20074;-63
2022/07/03 02:40:03;;;;;;;18.98;4.60;;;;;;;;;;4944014;28;20027;-63
2022/07/03 02:42:44;;;;;;;26.70;5.13;;;;;;;;;;4951507;29;20035;-63
2022/07/03 02:45:12;;;;;;;24.40;4.93;;;;;;;;;;4947678;29;20042;-64
2022/07/03 02:47:40;;;;;;;17.33;4.10;;;;;;;;;;4953566;29;20032;-65
2022/07/03 02:50:11;;;;;;;16.60;4.07;;;;;;;;;;4933462;29;20042;-64
2022/07/03 02:52:38;;;;;;;17.83;3.88;;;;;;;;;;4950250;29;20470;-64
2022/07/03 02:55:07;;;;;;;12.50;3.83;;;;;;;;;;4953360;29;20733;-64
2022/07/03 02:57:39;;;;;;;14.10;3.88;;;;;;;;;;4951735;29;20039;-63
2022/07/03 03:00:10;;;;;;;11.90;3.50;;;;;;;;;;4943906;29;20086;-63
2022/07/03 03:02:55;;;;;;;20.98;3.83;;;;;;;;;;4950333;29;20058;-64
2022/07/03 03:05:36;;;;;;;14.90;4.03;;;;;;;;;;4950623;29;20030;-64
2022/07/03 03:08:12;;;;;;;18.48;3.60;;;;;;;;;;4951342;29;20476;-64
2022/07/03 03:10:40;;;;;;;13.52;3.92;;;;;;;;;;4948271;29;20524;-64
2022/07/03 03:13:09;;;;;;;14.30;3.40;;;;;;;;;;4949368;29;20055;-63
2022/07/03 03:15:36;;;;;;;13.57;3.72;;;;;;;;;;4941164;29;20146;-63
2022/07/03 03:18:08;;;;;;;11.02;3.08;;;;;;;;;;4922308;29;20046;-62
2022/07/03 03:20:37;;;;;;;17.35;4.03;;;;;;;;;;4929453;29;20027;-60
2022/07/03 03:23:18;;;;;;;11.00;3.40;;;;;;;;;;4943034;29;20037;-62
2022/07/03 03:25:53;;;;;;;13.25;3.50;;;;;;;;;;4941868;29;20078;-62
2022/07/03 03:28:23;;;;;;;14.35;3.20;;;;;;;;;;4944360;28;20028;-62
2022/07/03 03:30:55;;;;;;;13.75;3.38;;;;;;;;;;4942470;29;20102;-61
2022/07/03 03:33:26;;;;;;;14.50;3.38;;;;;;;;;;4942560;29;20043;-61
2022/07/03 03:35:55;;;;;;;12.57;3.13;;;;;;;;;;4940649;29;20050;-61
2022/07/03 03:38:22;;;;;;;13.30;2.92;;;;;;;;;;4942512;29;20039;-61
2022/07/03 03:40:51;;;;;;;11.15;3.03;;;;;;;;;;4940990;29;20086;-64
2022/07/03 03:43:19;;;;;;;17.63;2.88;;;;;;;;;;4919233;29;20027;-62
2022/07/03 03:45:46;;;;;;;11.70;2.90;;;;;;;;;;4923401;29;20032;-62
2022/07/03 03:48:16;;;;;;;12.18;2.90;;;;;;;;;;4940890;29;20100;-64
2022/07/03 03:50:49;;;;;;;10.20;2.85;;;;;;;;;;4941811;29;20121;-62
2022/07/03 03:53:25;;;;;;;6.75;2.88;;;;;;;;;;4941042;29;20031;-65
2022/07/03 03:56:03;;;;;;;14.27;2.85;;;;;;;;;;4924244;29;20047;-64
2022/07/03 03:58:31;;;;;;;13.30;2.70;;;;;;;;;;4924125;29;20123;-64
2022/07/03 04:00:58;;;;;;;10.43;2.53;;;;;;;;;;4942679;29;20355;-64
2022/07/03 04:03:31;;;;;;;8.45;2.63;;;;;;;;;;4940795;29;20425;-65
2022/07/03 04:06:00;;;;;;;8.45;2.72;;;;;;;;;;4943613;29;20030;-64
2022/07/03 04:08:27;;;;;;;9.13;2.40;;;;;;;;;;4942725;29;20106;-64
2022/07/03 04:10:55;;;;;;;11.75;2.78;;;;;;;;;;4948894;29;20039;-64
2022/07/03 04:13:22;;;;;;;6.00;2.22;;;;;;;;;;4937391;29;20035;-63
2022/07/03 04:15:50;;;;;;;8.40;2.45;;;;;;;;;;4935626;29;20097;-63
2022/07/03 04:18:17;;;;;;;30.80;15.45;;;;;;;;;;4946837;29;20036;-63
2022/07/03 04:20:44;;;;;;;34.20;16.98;;;;;;;;;;4951914;29;20520;-63
2022/07/03 04:23:11;;;;;;;26.95;15.18;;;;;;;;;;4951511;29;20027;-63
2022/07/03 04:25:38;;;;;;;34.67;18.55;;;;;;;;;;4954708;29;20031;-63
2022/07/03 04:28:05;;;;;;;27.95;16.98;;;;;;;;;;4953386;29;20514;-63
2022/07/03 04:30:32;;;;;;;37.58;22.38;;;;;;;;;;4954626;29;20504;-63
2022/07/03 04:32:59;;;;;;;40.22;22.35;;;;;;;;;;4954247;29;20060;-63
2022/07/03 04:35:26;;;;;;;46.90;25.27;;;;;;;;;;4936697;29;20031;-63
2022/07/03 04:37:53;;;;;;;49.03;24.35;;;;;;;;;;4953410;29;20481;-63
2022/07/03 04:40:20;;;;;;;37.10;22.88;;;;;;;;;;4954748;29;20106;-63
2022/07/03 04:42:47;;;;;;;41.10;24.35;;;;;;;;;;4954640;29;20031;-63
2022/07/03 04:45:14;;;;;;;40.47;24.98;;;;;;;;;;4954219;29;20165;-63
2022/07/03 04:47:41;;;;;;;41.83;25.08;;;;;;;;;;4953931;29;20046;-63
2022/07/03 04:50:08;;;;;;;38.47;24.48;;;;;;;;;;4954567;29;20050;-63
2022/07/03 04:52:35;;;;;;;37.03;21.45;;;;;;;;;;4953420;29;20516;-63
2022/07/03 04:55:02;;;;;;;33.83;21.08;;;;;;;;;;4953676;29;20123;-63
2022/07/03 04:57:29;;;;;;;33.90;21.58;;;;;;;;;;4953876;29;20030;-63
2022/07/03 04:59:56;;;;;;;39.97;21.92;;;;;;;;;;4953584;29;20031;-63
2022/07/03 05:02:23;;;;;;;36.05;22.27;;;;;;;;;;4954022;29;20031;-63
2022/07/03 05:04:50;;;;;;;33.80;21.00;;;;;;;;;;4953392;28;20035;-63
2022/07/03 05:07:17;;;;;;;31.67;20.10;;;;;;;;;;4953751;29;20397;-63
2022/07/03 05:09:44;;;;;;;33.25;20.10;;;;;;;;;;4954350;29;20102;-63
2022/07/03 05:12:11;;;;;;;32.80;20.30;;;;;;;;;;4953623;29;20043;-63
2022/07/03 05:14:38;;;;;;;32.08;19.67;;;;;;;;;;4953400;29;20058;-63
2022/07/03 05:17:05;;;;;;;30.10;19.20;;;;;;;;;;4953674;29;20402;-63
2022/07/03 05:19:32;;;;;;;29.85;18.17;;;;;;;;;;4953864;29;20074;-63
2022/07/03 05:21:59;;;;;;;30.10;18.77;;;;;;;;;;4953668;29;20035;-63
2022/07/03 05:24:26;;;;;;;29.02;17.70;;;;;;;;;;4953407;29;20074;-64
2022/07/03 05:26:53;;;;;;;27.70;17.17;;;;;;;;;;4953580;29;20031;-60
2022/07/03 05:29:20;;;;;;;29.33;16.77;;;;;;;;;;4953589;29;20114;-60
2022/07/03 05:31:47;;;;;;;24.77;17.00;;;;;;;;;;4954044;29;20086;-63
2022/07/03 05:34:14;;;;;;;26.02;16.80;;;;;;;;;;4953067;29;20039;-60
2022/07/03 05:36:41;;;;;;;28.08;16.67;;;;;;;;;;4953656;29;20055;-63
2022/07/03 05:41:53;;;;;;;23.30;15.82;;;;;;;;;;4953315;29;20046;-64
2022/07/03 05:44:20;;;;;;;26.33;15.43;;;;;;;;;;4953229;29;20062;-62
2022/07/03 05:46:47;;;;;;;21.40;13.85;;;;;;;;;;4955125;29;20028;-60
2022/07/03 05:49:14;;;;;;;24.85;14.68;;;;;;;;;;4955187;29;20031;-61
2022/07/03 05:51:41;;;;;;;20.67;13.75;;;;;;;;;;4949096;29;20039;-60
2022/07/03 05:54:08;;;;;;;21.63;14.32;;;;;;;;;;4950645;29;20035;-60
2022/07/03 05:56:35;;;;;;;27.40;13.80;;;;;;;;;;4947886;29;20528;-60
2022/07/03 05:59:02;;;;;;;22.65;13.52;;;;;;;;;;4943433;29;20532;-60
2022/07/03 06:01:29;;;;;;;23.80;14.15;;;;;;;;;;4943074;29;20043;-60
2022/07/03 06:03:56;;;;;;;22.77;14.02;;;;;;;;;;4942063;29;20039;-61
2022/07/03 06:06:23;;;;;;;23.38;13.98;;;;;;;;;;4944075;29;20040;-60
2022/07/03 06:08:50;;;;;;;20.63;12.18;;;;;;;;;;4940093;29;20040;-60
2022/07/03 06:11:17;;;;;;;20.80;12.07;;;;;;;;;;4942030;29;20028;-60
2022/07/03 06:13:44;;;;;;;19.55;12.73;;;;;;;;;;4937864;29;20031;-60
2022/07/03 06:16:11;;;;;;;19.90;12.00;;;;;;;;;;4940740;29;20117;-61
2022/07/03 06:18:38;;;;;;;20.35;12.45;;;;;;;;;;4956729;29;20046;-60
2022/07/03 06:21:05;;;;;;;20.02;12.02;;;;;;;;;;4956683;29;20477;-60
2022/07/03 06:23:32;;;;;;;19.20;11.45;;;;;;;;;;4956884;29;20098;-60
2022/07/03 06:25:59;;;;;;;22.17;12.10;;;;;;;;;;4956349;29;20034;-60
2022/07/03 06:28:26;;;;;;;16.52;11.00;;;;;;;;;;4957256;29;20034;-60
2022/07/03 06:30:53;;;;;;;22.05;11.55;;;;;;;;;;4956522;29;20138;-60
2022/07/03 06:33:19;;;;;;;20.73;10.55;;;;;;;;;;4956505;29;20027;-60
2022/07/03 06:35:47;;;;;;;16.50;10.15;;;;;;;;;;4956609;29;20039;-60
2022/07/03 06:38:13;;;;;;;15.65;9.95;;;;;;;;;;4956840;29;20031;-60
2022/07/03 06:40:41;;;;;;;17.25;10.65;;;;;;;;;;4956276;29;20051;-60
2022/07/03 06:43:07;;;;;;;15.00;9.73;;;;;;;;;;4971592;28;20486;-60
2022/07/03 06:45:34;;;;;;;16.88;10.25;;;;;;;;;;4956358;29;20034;-60
2022/07/03 06:48:01;;;;;;;16.75;9.90;;;;;;;;;;4956642;29;20313;-60
2022/07/03 06:50:28;;;;;;;14.88;9.07;;;;;;;;;;4956057;29;20027;-60
2022/07/03 06:52:55;;;;;;;14.95;9.10;;;;;;;;;;4956876;29;20023;-60
2022/07/03 06:55:22;;;;;;;15.43;8.73;;;;;;;;;;4956751;29;20035;-60
2022/07/03 06:57:49;;;;;;;14.57;9.23;;;;;;;;;;4955943;29;20065;-60
2022/07/03 07:00:16;;;;;;;13.77;8.43;;;;;;;;;;4956537;29;20458;-60
2022/07/03 07:02:43;;;;;;;13.70;8.40;;;;;;;;;;4956154;29;20154;-60
2022/07/03 07:05:10;;;;;;;12.73;8.27;;;;;;;;;;4956642;29;20562;-60
2022/07/03 07:07:37;;;;;;;15.38;8.18;;;;;;;;;;4956120;29;20532;-60
2022/07/03 07:10:04;;;;;;;12.57;7.65;;;;;;;;;;4971004;28;20038;-60
2022/07/03 07:12:31;;;;;;;14.75;8.18;;;;;;;;;;4955549;29;20055;-60
2022/07/03 07:14:58;;;;;;;12.40;8.05;;;;;;;;;;4955934;29;20055;-60
2022/07/03 07:17:25;;;;;;;14.25;7.70;;;;;;;;;;4956036;29;20039;-60
2022/07/03 07:19:52;;;;;;;11.45;7.57;;;;;;;;;;4956731;29;20575;-60
2022/07/03 07:22:19;;;;;;;13.85;7.53;;;;;;;;;;4955371;29;20106;-60
2022/07/03 07:24:46;;;;;;;12.60;7.35;;;;;;;;;;4955882;29;20038;-60
2022/07/03 07:27:13;;;;;;;14.10;7.45;;;;;;;;;;4955130;28;20379;-60
2022/07/03 07:29:40;;;;;;;11.45;7.38;;;;;;;;;;4955589;29;20493;-60
2022/07/03 07:32:07;;;;;;;12.38;6.93;;;;;;;;;;4970201;28;20035;-60
2022/07/03 07:34:34;;;;;;;13.20;6.78;;;;;;;;;;4956122;29;20039;-60
2022/07/03 07:37:01;;;;;;;14.70;6.85;;;;;;;;;;4955194;29;20039;-60
2022/07/03 07:39:28;;;;;;;13.80;6.82;;;;;;;;;;4956135;29;20031;-60
2022/07/03 07:41:55;;;;;;;11.40;6.57;;;;;;;;;;4955116;29;20035;-60
2022/07/03 07:44:22;;;;;;;8.80;5.97;;;;;;;;;;4955839;29;20804;-60
2022/07/03 07:46:50;;;;;;;11.38;6.53;;;;;;;;;;4955574;28;20429;-60
2022/07/03 07:49:17;;;;;;;11.10;6.55;;;;;;;;;;4956001;29;20031;-60
2022/07/03 07:51:44;;;;;;;11.50;6.20;;;;;;;;;;4955058;29;20054;-60
2022/07/03 07:57:21;;;;;;;8.23;5.70;;;;;;;;;;4956603;29;20560;-60
2022/07/03 08:08:53;;;;;;;9.13;5.05;;;;;;;;;;4954864;29;20070;-60
2022/07/03 08:11:20;;;;;;;10.60;5.80;;;;;;;;;;4955215;29;20042;-60
2022/07/03 08:13:47;;;;;;;9.38;5.57;;;;;;;;;;4955371;29;20043;-60
2022/07/03 08:16:14;;;;;;;9.95;5.22;;;;;;;;;;4954107;29;20071;-60
2022/07/03 08:18:41;;;;;;;10.75;5.40;;;;;;;;;;4955416;29;20136;-60
2022/07/03 08:21:08;;;;;;;9.38;4.75;;;;;;;;;;4954891;29;20148;-60
2022/07/03 08:23:35;;;;;;;7.97;4.90;;;;;;;;;;4954874;29;20622;-60
2022/07/03 08:26:02;;;;;;;9.32;4.72;;;;;;;;;;4955274;29;20493;-60
2022/07/03 08:28:29;;;;;;;11.48;4.82;;;;;;;;;;4954475;29;20035;-60
2022/07/03 08:30:56;;;;;;;8.23;4.75;;;;;;;;;;4955043;29;20158;-60
2022/07/03 08:33:23;;;;;;;7.32;4.57;;;;;;;;;;4954426;29;20701;-60
2022/07/03 08:35:50;;;;;;;6.65;4.40;;;;;;;;;;4954743;29;20046;-60
2022/07/03 08:38:17;;;;;;;9.77;4.00;;;;;;;;;;4953999;28;20039;-60
2022/07/03 08:40:46;;;;;;;7.97;4.63;;;;;;;;;;4954087;29;20039;-60
2022/07/03 08:43:12;;;;;;;7.22;3.92;;;;;;;;;;4954864;29;20114;-60
2022/07/03 08:45:40;;;;;;;7.60;4.30;;;;;;;;;;4954418;29;20034;-59
2022/07/03 08:48:08;;;;;;;7.05;4.15;;;;;;;;;;4954554;29;20050;-60
2022/07/03 08:50:35;;;;;;;5.65;3.50;;;;;;;;;;4954818;29;20039;-60
2022/07/03 08:53:03;;;;;;;5.75;3.63;;;;;;;;;;4953658;29;20081;-60
2022/07/03 08:55:30;;;;;;;7.05;3.92;;;;;;;;;;4954716;29;20043;-60
2022/07/03 08:57:57;;;;;;;6.82;3.97;;;;;;;;;;4954140;29;20482;-60
2022/07/03 09:00:24;;;;;;;6.75;3.72;;;;;;;;;;4954492;29;20031;-60
2022/07/03 09:02:51;;;;;;;6.53;3.45;;;;;;;;;;4953839;29;20059;-63
2022/07/03 09:05:18;;;;;;;5.70;3.88;;;;;;;;;;4954656;29;20086;-60
2022/07/03 09:07:46;;;;;;;8.57;4.07;;;;;;;;;;4954579;29;20046;-60
2022/07/03 09:10:14;;;;;;;6.20;3.55;;;;;;;;;;4953686;29;20039;-60
2022/07/03 09:12:43;;;;;;;5.97;3.35;;;;;;;;;;4954329;29;20043;-60
2022/07/03 09:15:10;;;;;;;6.47;3.40;;;;;;;;;;4953444;29;20434;-60
2022/07/03 09:17:37;;;;;;;6.07;2.83;;;;;;;;;;4954260;29;20038;-60
2022/07/03 09:20:06;;;;;;;6.88;3.17;;;;;;;;;;4953808;29;20122;-60
2022/07/03 09:22:36;;;;;;;4.50;3.28;;;;;;;;;;4953462;29;20027;-60
2022/07/03 09:25:11;;;;;;;7.82;3.17;;;;;;;;;;4953252;29;20426;-60
2022/07/03 09:27:40;;;;;;;7.22;3.45;;;;;;;;;;4954422;29;20110;-60
2022/07/03 09:30:08;;;;;;;7.28;3.00;;;;;;;;;;4953666;29;20035;-60
2022/07/03 09:32:39;;;;;;;6.32;3.00;;;;;;;;;;4954094;29;20035;-60
2022/07/03 09:35:15;;;;;;;5.68;2.85;;;;;;;;;;4953725;29;20050;-60
2022/07/03 09:37:48;;;;;;;5.93;2.88;;;;;;;;;;4953944;29;20034;-60
2022/07/03 09:40:16;;;;;;;6.05;3.00;;;;;;;;;;4953775;29;20031;-60
2022/07/03 09:43:03;;;;;;;5.13;3.05;;;;;;;;;;4954324;29;20114;-60
2022/07/03 09:45:48;;;;;;;6.55;2.92;;;;;;;;;;4953419;29;20031;-60
2022/07/03 09:48:41;;;;;;;7.65;2.92;;;;;;;;;;4953915;29;20118;-60
2022/07/03 09:51:08;;;;;;;;;;;;;;;;;;4955027;28;20147;-60
2022/07/03 09:53:45;;;;;;;6.82;2.90;;;;;;;;;;4957602;29;19906;-60
2022/07/03 09:56:12;;;;;;;5.13;2.88;;;;;;;;;;4957124;29;20529;-60
2022/07/03 09:58:39;;;;;;;6.30;2.92;;;;;;;;;;4957814;29;20114;-60
2022/07/03 10:01:22;;;;;;;7.82;3.03;;;;;;;;;;4957995;29;20038;-60
2022/07/03 10:03:49;;;;;;;6.32;2.55;;;;;;;;;;4956964;28;20109;-60
2022/07/03 10:06:16;;;;;;;7.57;2.97;;;;;;;;;;4957276;29;20378;-60
2022/07/03 10:08:43;;;;;;;5.65;2.60;;;;;;;;;;4957784;29;20043;-60
2022/07/03 10:11:11;;;;;;;7.13;2.78;;;;;;;;;;4957207;29;20046;-61
2022/07/03 10:13:39;;;;;;;5.38;2.53;;;;;;;;;;4957155;29;20031;-60
2022/07/03 10:16:08;;;;;;;6.13;2.53;;;;;;;;;;4956998;29;20055;-60
2022/07/03 10:18:41;;;;;;;7.20;2.50;;;;;;;;;;4957014;29;20122;-60
2022/07/03 10:21:09;;;;;;;5.10;2.40;;;;;;;;;;4956944;29;20035;-60
2022/07/03 10:23:36;;;;;;;6.25;2.30;;;;;;;;;;4956510;29;20042;-60
2022/07/03 10:26:03;;;;;;;7.93;2.50;;;;;;;;;;4957303;29;20035;-60
2022/07/03 10:28:31;;;;;;;5.57;2.40;;;;;;;;;;4957176;29;20051;-60
2022/07/03 10:30:59;;;;;;;9.73;3.00;;;;;;;;;;4956676;29;20039;-60
2022/07/03 10:33:26;;;;;;;7.30;2.85;;;;;;;;;;4957192;29;20528;-60
2022/07/03 10:35:53;;;;;;;9.27;2.70;;;;;;;;;;4956796;29;20039;-60
2022/07/03 10:38:40;;;;;;;6.30;2.20;;;;;;;;;;4956345;29;20035;-60
2022/07/03 10:46:38;;;;;;;9.30;2.38;;;;;;;;;;4945261;29;20054;-60
2022/07/03 10:49:06;;;;;;;9.30;2.80;;;;;;;;;;4955502;29;20497;-60
2022/07/03 10:51:42;;;;;;;6.53;2.63;;;;;;;;;;4930457;29;20031;-60
2022/07/03 10:54:17;;;;;;;8.90;2.67;;;;;;;;;;4955718;29;20031;-60
2022/07/03 10:57:15;;;;;;;9.00;2.50;;;;;;;;;;4956409;29;20035;-60
2022/07/03 10:59:45;;;;;;;7.28;2.40;;;;;;;;;;4944109;29;20066;-60
2022/07/03 11:02:26;;;;;;;7.97;2.58;;;;;;;;;;4955318;28;20037;-60
2022/07/03 11:04:59;;;;;;;7.35;2.20;;;;;;;;;;4956224;29;20043;-60
2022/07/03 11:07:31;;;;;;;6.75;2.42;;;;;;;;;;4955372;29;20058;-60
2022/07/03 11:10:21;;;;;;;5.15;2.20;;;;;;;;;;4956372;29;20114;-60
2022/07/03 11:12:57;;;;;;;8.38;2.47;;;;;;;;;;4947766;29;20043;-60
2022/07/03 11:15:34;;;;;;;5.43;2.40;;;;;;;;;;4955994;29;20486;-60
2022/07/03 11:18:07;;;;;;;6.43;2.42;;;;;;;;;;4956232;29;20041;-60
2022/07/03 11:20:34;;;;;;;4.75;2.35;;;;;;;;;;4955547;29;20046;-60
2022/07/03 11:23:14;;;;;;;5.95;2.22;;;;;;;;;;4938752;29;20493;-60
2022/07/03 11:25:42;;;;;;;10.27;2.40;;;;;;;;;;4955045;29;20031;-60
2022/07/03 11:28:29;;;;;;;6.60;2.70;;;;;;;;;;4956037;29;20039;-60
2022/07/03 11:31:19;;;;;;;9.60;2.40;;;;;;;;;;4955108;29;20066;-60
2022/07/03 11:33:55;;;;;;;4.75;2.15;;;;;;;;;;4947540;29;20580;-60
2022/07/03 11:36:28;;;;;;;7.32;2.30;;;;;;;;;;4955401;29;20043;-60
2022/07/03 11:38:57;;;;;;;6.35;2.40;;;;;;;;;;4955656;29;20031;-60
2022/07/03 11:41:25;;;;;;;9.13;2.78;;;;;;;;;;4955020;29;20058;-60
2022/07/03 11:43:59;;;;;;;8.27;2.13;;;;;;;;;;4954933;29;20037;-59
2022/07/03 11:46:27;;;;;;;7.95;2.10;;;;;;;;;;4955726;29;20035;-60
2022/07/03 11:49:06;;;;;;;11.70;2.67;;;;;;;;;;4955249;29;20032;-60
2022/07/03 11:51:34;;;;;;;7.43;2.30;;;;;;;;;;4954971;29;20035;-60
2022/07/03 11:54:01;;;;;;;7.15;2.40;;;;;;;;;;4955398;29;20042;-60
2022/07/03 11:56:28;;;;;;;7.07;2.45;;;;;;;;;;4955020;29;20046;-59
2022/07/03 11:58:56;;;;;;;8.63;2.33;;;;;;;;;;4954426;29;20109;-59
2022/07/03 12:01:23;;;;;;;4.97;2.25;;;;;;;;;;4955364;29;20038;-59
2022/07/03 12:03:50;;;;;;;9.80;2.72;;;;;;;;;;4955227;29;20438;-60
2022/07/03 12:06:18;;;;;;;5.85;2.42;;;;;;;;;;4954527;29;20035;-60
2022/07/03 12:08:48;;;;;;;6.40;2.25;;;;;;;;;;4955127;29;20111;-60
2022/07/03 12:11:16;;;;;;;7.28;2.42;;;;;;;;;;4954430;29;20106;-60
2022/07/03 12:13:43;;;;;;;8.35;2.47;;;;;;;;;;4955037;28;20438;-60
2022/07/03 12:16:12;;;;;;;8.00;2.72;;;;;;;;;;4954542;29;20043;-60
2022/07/03 12:18:42;;;;;;;11.13;2.72;;;;;;;;;;4954787;29;20066;-60
2022/07/03 12:21:12;;;;;;;9.98;2.55;;;;;;;;;;4954846;29;20070;-60
2022/07/03 12:23:49;;;;;;;13.30;2.90;;;;;;;;;;4953782;29;20035;-60
2022/07/03 12:26:36;;;;;;;7.22;2.40;;;;;;;;;;4954873;29;20031;-60
2022/07/03 12:29:37;;;;;;;6.60;2.65;;;;;;;;;;4952946;29;20039;-59
2022/07/03 12:32:10;;;;;;;10.80;3.17;;;;;;;;;;4954416;29;20067;-60
2022/07/03 12:34:38;;;;;;;7.13;2.55;;;;;;;;;;4953906;29;20035;-60
2022/07/03 12:37:05;;;;;;;9.85;2.35;;;;;;;;;;4954474;29;20077;-61
2022/07/03 12:39:47;;;;;;;8.60;2.40;;;;;;;;;;4953604;29;20486;-60
2022/07/03 12:42:20;;;;;;;9.20;2.90;;;;;;;;;;4954591;29;20035;-60
2022/07/03 12:44:57;;;;;;;14.60;3.70;;;;;;;;;;4953717;29;20027;-60
2022/07/03 12:47:25;;;;;;;14.43;3.45;;;;;;;;;;4954202;29;20038;-60
2022/07/03 12:49:57;;;;;;;14.70;3.33;;;;;;;;;;4954089;29;20031;-60
2022/07/03 12:52:24;;;;;;;9.10;2.95;;;;;;;;;;4952956;29;20027;-60
2022/07/03 12:54:51;;;;;;;9.38;3.42;;;;;;;;;;4954060;29;20085;-60
2022/07/03 13:00:07;;;;;;;6.85;2.85;;;;;;;;;;4954289;29;20517;-60
2022/07/03 13:02:35;;;;;;;14.23;3.22;;;;;;;;;;4953419;29;20062;-59
2022/07/03 13:05:03;;;;;;;8.55;2.72;;;;;;;;;;4953476;29;20043;-60
2022/07/03 13:07:32;;;;;;;10.77;3.13;;;;;;;;;;4953508;29;20397;-60
2022/07/03 13:10:03;;;;;;;10.18;2.60;;;;;;;;;;4952289;29;20028;-60
2022/07/03 13:12:30;;;;;;;11.68;3.38;;;;;;;;;;4952714;29;20042;-60
2022/07/03 13:15:01;;;;;;;7.75;3.10;;;;;;;;;;4953371;29;20075;-60
2022/07/03 13:17:47;;;;;;;10.77;3.05;;;;;;;;;;4953027;29;20084;-60
2022/07/03 13:20:13;;;;;;;11.60;3.25;;;;;;;;;;4952257;28;20061;-59
2022/07/03 13:22:40;;;;;;;13.02;3.13;;;;;;;;;;4961751;28;20118;-60
2022/07/03 13:25:07;;;;;;;11.32;3.40;;;;;;;;;;4953181;28;20035;-60
2022/07/03 13:27:34;;;;;;;8.65;3.28;;;;;;;;;;4953608;29;20445;-60
2022/07/03 13:30:01;;;;;;;14.90;3.28;;;;;;;;;;4953311;29;20035;-60
2022/07/03 13:32:28;;;;;;;9.00;2.75;;;;;;;;;;4959003;28;20027;-60
2022/07/03 13:34:55;;;;;;;10.30;3.42;;;;;;;;;;4960834;28;20049;-60
2022/07/03 13:37:22;;;;;;;9.90;3.15;;;;;;;;;;4955619;28;20043;-60
2022/07/03 13:39:49;;;;;;;13.20;3.40;;;;;;;;;;4960058;28;20035;-60
2022/07/03 13:42:17;;;;;;;15.82;3.83;;;;;;;;;;4960464;28;20118;-61
2022/07/03 13:44:44;;;;;;;14.10;3.60;;;;;;;;;;4957498;28;20035;-60
2022/07/03 13:47:11;;;;;;;10.15;3.25;;;;;;;;;;4935227;29;20032;-60
2022/07/03 13:49:38;;;;;;;7.90;3.30;;;;;;;;;;4953560;29;20031;-60
2022/07/03 13:52:05;;;;;;;12.90;4.15;;;;;;;;;;4947154;29;20137;-60
2022/07/03 13:54:32;;;;;;;19.23;4.30;;;;;;;;;;4950386;29;20035;-60
2022/07/03 13:57:00;;;;;;;16.13;4.05;;;;;;;;;;4943972;29;20031;-61
2022/07/03 13:59:27;;;;;;;18.27;4.55;;;;;;;;;;4948658;29;20065;-60
2022/07/03 14:01:54;;;;;;;22.60;4.25;;;;;;;;;;4929954;29;20389;-60
2022/07/03 14:04:21;;;;;;;24.58;5.03;;;;;;;;;;4953109;29;20028;-60
2022/07/03 14:06:48;;;;;;;23.17;4.75;;;;;;;;;;4942991;29;20039;-60
2022/07/03 14:09:15;;;;;;;24.80;4.20;;;;;;;;;;4944082;29;20386;-60
2022/07/03 14:11:43;;;;;;;19.55;4.53;;;;;;;;;;4949502;29;20038;-60
2022/07/03 14:14:10;;;;;;;19.38;3.67;;;;;;;;;;4952894;29;20027;-60
2022/07/03 14:16:38;;;;;;;24.80;5.13;;;;;;;;;;4952254;29;20055;-61
2022/07/03 14:19:05;;;;;;;23.75;4.72;;;;;;;;;;4945813;29;20473;-61
2022/07/03 14:21:34;;;;;;;18.95;4.38;;;;;;;;;;4946714;29;20043;-61
2022/07/03 14:24:01;;;;;;;20.05;4.68;;;;;;;;;;4952779;29;20058;-60
2022/07/03 14:34:44;;;;;;;21.25;4.75;;;;;;;;;;4953394;29;20163;-60
2022/07/03 14:37:12;;;;;;;21.27;4.93;;;;;;;;;;4955184;28;20106;-60
2022/07/03 14:39:40;;;;;;;23.13;5.00;;;;;;;;;;4956486;29;20035;-60
2022/07/03 14:42:07;;;;;;;20.85;4.55;;;;;;;;;;4955647;29;20401;-60
2022/07/03 14:44:35;;;;;;;26.45;4.75;;;;;;;;;;4956260;29;20644;-60
2022/07/03 14:47:02;;;;;;;13.93;3.78;;;;;;;;;;4954472;29;20031;-60
2022/07/03 14:49:30;;;;;;;23.48;5.10;;;;;;;;;;4949167;29;20020;-60
2022/07/03 14:52:02;;;;;;;17.92;4.75;;;;;;;;;;4950540;29;20095;-61
2022/07/03 14:54:40;;;;;;;24.75;4.72;;;;;;;;;;4948798;29;20035;-60
2022/07/03 14:57:09;;;;;;;19.92;4.82;;;;;;;;;;4951074;29;20035;-61
2022/07/03 14:59:49;;;;;;;17.33;4.18;;;;;;;;;;4943798;29;20028;-61
2022/07/03 15:02:20;;;;;;;16.33;4.85;;;;;;;;;;4949217;29;20036;-60
2022/07/03 15:05:06;;;;;;;18.58;4.68;;;;;;;;;;4951340;29;20019;-60
2022/07/03 15:07:40;;;;;;;18.75;4.72;;;;;;;;;;4938426;29;20038;-60
2022/07/03 15:10:09;;;;;;;22.35;5.40;;;;;;;;;;4954329;29;20031;-60
2022/07/03 15:12:42;;;;;;;18.67;5.22;;;;;;;;;;4939308;29;20031;-61
2022/07/03 15:15:10;;;;;;;27.02;5.18;;;;;;;;;;4951001;28;20098;-61
2022/07/03 15:17:38;;;;;;;18.05;4.93;;;;;;;;;;4954134;29;20401;-60
2022/07/03 15:20:07;;;;;;;16.25;5.15;;;;;;;;;;4954868;29;20055;-60